Terminal Aerodrome Forecast
Issued by NWS

Home | Current Version | Previous Version | Graphics & Text | Print | Product List | Glossary On
Versions: 1 2 3 4 5 6 7 8 9 10 11 12 13 14 15 16 17
050
FTUS41 KCLE 241732
TAFFDY
TAF
KFDY 241732Z 2418/2518 04010KT P6SM BKN035
      TEMPO 2418/2419 OVC028
     FM250000 07006KT P6SM FEW035
     FM251500 11006KT P6SM SCT150=

USA.gov is the U.S. government's official web portal to all federal, state and local government web resources and services.